Stations météo

réclame
Mon MeteoGroup
Ilundain, Espagne (8089): Température de l'air & dewpoint: 16.10.2018 16:00:00 - 22.10.2018 16:00:00 (CEST)Ilundain, Espagne (8089): Vitesse du vent & gusts: 16.10.2018 16:00:00 - 22.10.2018 16:00:00 (CEST)Ilundain, Espagne (8089): Direction du vent: 16.10.2018 16:00:00 - 22.10.2018 16:00:00 (CEST)Ilundain, Espagne (8089): Quantités de précipitations: 16.10.2018 16:00:00 - 22.10.2018 16:00:00 (CEST)
Date & Time tt [°C] td [°C] ff [km/h] ff [knt] fx [km/h] fx [knt] dd rr [mm]
22.10.2018 16:00:00 18,1 6,8 13 7 30 16 NNW 0,0
22.10.2018 15:00:00 18,2 7,6 16 8 31 17 NNW 0,0
22.10.2018 14:00:00 17,7 8,3 18 10 29 16 NNW -
22.10.2018 13:00:00 17,1 9,0 18 10 29 15 NNW 0,0
22.10.2018 12:00:00 15,9 9,0 13 7 25 13 NNW 0,0
22.10.2018 11:00:00 15,0 10,0 11 6 22 12 NNW 0,0
22.10.2018 10:00:00 13,5 10,2 6 3 14 7 NW 0,0
22.10.2018 09:00:00 11,7 9,6 6 3 15 8 NNW 0,0
22.10.2018 08:00:00 11,2 9,4 4 2 14 8 WNW -
22.10.2018 07:00:00 12,2 10,3 3 2 15 8 WNW 0,0
22.10.2018 06:00:00 12,4 11,7 11 6 22 12 WNW 0,0
22.10.2018 05:00:00 11,8 11,2 4 2 11 6 W 0,0
22.10.2018 04:00:00 12,4 11,4 3 2 16 9 WNW 0,0
22.10.2018 03:00:00 12,7 11,8 3 2 15 8 SSW 0,0
22.10.2018 02:00:00 13,0 12,2 3 1 13 7 SW -
22.10.2018 01:00:00 12,9 12,3 6 3 11 6 WSW 0,0
22.10.2018 00:00:00 12,3 11,9 5 3 10 5 WSW 0,0
21.10.2018 23:00:00 12,6 11,8 2 1 5 3 ESE 0,0
21.10.2018 22:00:00 13,7 11,9 1 0 5 3 SSE 0,0
21.10.2018 21:00:00 14,6 11,8 4 2 6 3 SE 0,0
21.10.2018 20:00:00 17,9 11,4 3 1 17 9 SSW -
21.10.2018 19:00:00 20,8 11,4 4 2 16 9 NNE 0,0
21.10.2018 18:00:00 22,9 11,6 7 4 21 12 N 0,0
21.10.2018 17:00:00 23,0 12,6 11 6 17 9 NW 0,0
21.10.2018 16:00:00 22,3 12,5 8 4 15 8 WNW 0,0
21.10.2018 15:00:00 20,8 13,0 7 4 13 7 W 0,0
21.10.2018 14:00:00 19,5 13,9 3 2 7 4 W -
21.10.2018 13:00:00 14,9 14,4 3 2 7 4 W 0,0
21.10.2018 12:00:00 12,9 12,7 3 2 6 3 WNW 0,0
21.10.2018 11:00:00 12,2 12,0 1 0 5 3 WSW 0,0
21.10.2018 10:00:00 11,4 11,2 0 0 4 2 NE 0,0
21.10.2018 09:00:00 11,2 11,0 1 1 4 2 NE 0,0
21.10.2018 08:00:00 11,1 11,0 1 0 5 3 ENE -
21.10.2018 07:00:00 10,3 10,2 3 2 6 4 E 0,0
21.10.2018 06:00:00 10,5 10,3 2 1 7 4 E 0,0
21.10.2018 05:00:00 11,5 11,3 5 3 13 7 ESE 0,0
21.10.2018 04:00:00 11,0 10,9 4 2 6 3 E 0,0
21.10.2018 03:00:00 11,4 11,2 6 3 8 5 E 0,0
21.10.2018 02:00:00 11,5 11,3 3 2 6 3 E -
21.10.2018 01:00:00 11,6 11,4 3 1 4 2 ESE 0,0
21.10.2018 00:00:00 12,5 12,0 0 0 6 3 SE 0,0
20.10.2018 23:00:00 12,9 12,1 4 2 7 4 E 0,0
20.10.2018 22:00:00 13,6 12,3 1 1 5 3 ESE 0,0
20.10.2018 21:00:00 15,2 12,7 1 1 9 5 E 0,0
20.10.2018 20:00:00 16,9 13,1 5 3 9 5 S -
20.10.2018 19:00:00 19,0 13,0 3 2 12 6 SE 0,0
20.10.2018 18:00:00 20,4 12,8 6 3 17 9 NNE 0,0
20.10.2018 17:00:00 21,8 12,6 6 3 13 7 W 0,0
20.10.2018 16:00:00 21,9 13,0 1 0 12 7 W 0,0
20.10.2018 15:00:00 20,6 13,8 4 2 14 8 W 0,0
20.10.2018 14:00:00 19,0 13,7 7 4 14 8 WNW -
20.10.2018 13:00:00 18,0 13,3 4 2 12 6 WNW 0,0
20.10.2018 12:00:00 16,3 13,3 3 1 6 4 SSW 0,0
20.10.2018 11:00:00 14,1 12,6 0 0 4 2 W 0,0
20.10.2018 10:00:00 12,9 12,6 1 1 4 2 E 0,0
20.10.2018 09:00:00 12,6 12,3 0 0 4 2 N 0,0
20.10.2018 08:00:00 12,7 12,2 1 1 6 4 SW -
20.10.2018 07:00:00 12,6 12,1 2 1 4 2 ENE 0,0
20.10.2018 06:00:00 12,6 12,0 1 0 5 3 SE 0,0
20.10.2018 05:00:00 13,2 12,5 1 1 4 2 E 0,0
20.10.2018 04:00:00 13,1 12,6 1 0 5 3 E 0,0
20.10.2018 03:00:00 12,4 11,9 4 2 7 4 ENE 0,0
20.10.2018 02:00:00 12,8 12,3 0 0 3 2 S -
20.10.2018 01:00:00 13,5 12,7 1 0 4 2 SW 0,0
20.10.2018 00:00:00 14,3 13,4 1 1 11 6 S 0,0
19.10.2018 23:00:00 14,3 13,4 0 0 7 4 NW 0,0
19.10.2018 22:00:00 14,7 13,1 1 1 7 4 SSW 0,0
19.10.2018 21:00:00 15,6 13,0 1 1 7 4 SSW 0,0
19.10.2018 20:00:00 - - - - - - - -
19.10.2018 19:00:00 18,1 12,3 6 4 20 11 NNE 0,0
19.10.2018 18:00:00 19,2 12,4 6 4 21 11 NNE 0,0
19.10.2018 17:00:00 20,1 12,6 9 5 20 11 NNE 0,0
19.10.2018 16:00:00 20,8 12,0 9 5 24 13 NE 0,0
19.10.2018 15:00:00 21,9 13,3 7 4 19 10 WSW 0,0
19.10.2018 14:00:00 20,5 13,7 5 3 10 5 SW -
19.10.2018 13:00:00 17,9 13,2 5 3 7 4 W 0,0
19.10.2018 12:00:00 17,2 13,8 0 0 6 3 SW 0,0
19.10.2018 11:00:00 15,7 13,6 1 1 7 4 ESE 0,0
19.10.2018 10:00:00 13,5 13,4 1 1 6 3 E 0,0
19.10.2018 09:00:00 12,0 11,9 2 1 8 4 E 0,0
19.10.2018 08:00:00 12,0 11,9 1 0 8 4 ENE -
19.10.2018 07:00:00 12,0 11,9 0 0 6 3 E 0,0
19.10.2018 06:00:00 11,9 11,8 3 1 9 5 SW 0,0
19.10.2018 05:00:00 12,1 11,7 1 1 7 4 SE 0,0
19.10.2018 04:00:00 12,2 11,6 0 0 6 4 SSW 0,0
19.10.2018 03:00:00 13,1 12,1 2 1 6 4 SSE 0,0
19.10.2018 02:00:00 14,1 12,6 0 0 6 3 ENE -
19.10.2018 01:00:00 14,3 12,5 1 0 8 4 NW 0,0
19.10.2018 00:00:00 14,8 11,9 0 0 17 9 S 0,0
18.10.2018 23:00:00 15,5 12,4 6 3 15 8 N 0,0
18.10.2018 22:00:00 15,5 12,1 7 4 16 9 NNE 0,0
18.10.2018 21:00:00 16,0 12,2 4 2 16 9 NNE 0,0
18.10.2018 20:00:00 16,0 12,0 8 4 21 11 ENE -
18.10.2018 19:00:00 16,1 12,2 9 5 23 12 ENE 0,0
18.10.2018 18:00:00 16,6 11,9 12 6 28 15 ENE 0,0
18.10.2018 17:00:00 17,7 11,7 11 6 27 14 NE 0,0
18.10.2018 16:00:00 18,4 11,4 11 6 22 12 ENE 0,0
18.10.2018 15:00:00 20,4 11,9 9 5 21 11 NNW 0,0
18.10.2018 14:00:00 20,2 11,7 4 2 17 9 NNE -
18.10.2018 13:00:00 19,2 12,6 3 2 12 7 W 0,0
18.10.2018 12:00:00 16,2 13,0 5 3 11 6 SW 0,0
18.10.2018 11:00:00 13,2 12,1 4 2 8 4 WSW 0,0
18.10.2018 10:00:00 11,1 11,0 0 0 5 3 NE 0,0
18.10.2018 09:00:00 9,1 8,9 1 1 6 3 ESE 0,0
18.10.2018 08:00:00 9,2 9,0 2 1 5 3 ESE -
18.10.2018 07:00:00 8,6 8,3 3 2 6 4 ESE 0,0
18.10.2018 06:00:00 9,0 8,4 1 1 7 4 S 0,0
18.10.2018 05:00:00 9,5 8,5 2 1 10 5 E 0,0
18.10.2018 04:00:00 9,9 8,7 0 0 7 4 E 0,0
18.10.2018 03:00:00 10,7 9,3 3 2 7 4 E 0,0
18.10.2018 02:00:00 12,6 10,6 5 3 9 5 ESE -
18.10.2018 01:00:00 12,3 10,9 4 2 5 3 E 0,0
18.10.2018 00:00:00 13,2 11,2 3 2 6 4 ESE 0,0
17.10.2018 23:00:00 12,7 10,6 1 0 6 3 ESE 0,0
17.10.2018 22:00:00 12,7 10,3 1 1 6 3 S 0,0
17.10.2018 21:00:00 13,6 9,8 1 0 8 4 E 0,0
17.10.2018 20:00:00 15,1 10,3 3 2 7 4 E -
17.10.2018 19:00:00 19,9 8,9 1 1 7 4 SSW 0,0
17.10.2018 18:00:00 20,9 8,1 3 1 11 6 W 0,0
17.10.2018 17:00:00 20,9 7,8 2 1 11 6 NW 0,0
17.10.2018 16:00:00 20,4 7,4 4 2 9 5 WNW 0,0
17.10.2018 15:00:00 19,0 8,7 2 1 10 5 WSW 0,0
17.10.2018 14:00:00 17,1 11,3 6 3 11 6 WNW -
17.10.2018 13:00:00 15,4 11,8 4 2 8 4 WSW 0,0
17.10.2018 12:00:00 12,4 11,1 2 1 9 5 WNW 0,0
17.10.2018 11:00:00 11,8 10,9 3 1 5 3 WSW 0,0
17.10.2018 10:00:00 10,7 10,5 3 2 6 3 E 0,0
17.10.2018 09:00:00 8,2 8,1 4 2 5 3 E 0,0
17.10.2018 08:00:00 8,2 8,1 6 3 8 4 E -
17.10.2018 07:00:00 8,6 8,4 3 2 5 3 E 0,0
17.10.2018 06:00:00 8,9 8,8 4 2 8 4 E 0,0
17.10.2018 05:00:00 8,3 8,1 2 1 7 4 E 0,0
17.10.2018 04:00:00 8,6 8,4 3 2 6 4 E 0,0
17.10.2018 03:00:00 8,9 8,8 5 3 7 4 E 0,0
17.10.2018 02:00:00 9,4 9,3 3 2 6 4 E -
17.10.2018 01:00:00 9,8 9,7 4 2 6 3 E 0,0
17.10.2018 00:00:00 10,2 9,9 3 1 6 4 E 0,0
16.10.2018 23:00:00 11,7 10,9 0 0 7 4 SSW 0,0
16.10.2018 22:00:00 12,0 10,9 1 1 6 4 SW 0,0
16.10.2018 21:00:00 13,1 10,8 0 0 7 4 SE 0,0
16.10.2018 20:00:00 15,4 10,8 0 0 17 9 WSW -
16.10.2018 19:00:00 17,2 10,5 8 5 22 12 ENE 0,0
16.10.2018 18:00:00 19,4 9,8 14 8 22 12 NNW 0,0
16.10.2018 17:00:00 19,1 9,0 8 4 21 11 N 0,0
16.10.2018 16:00:00 20,2 10,6 8 4 14 8 W 0,0

tt = Température de l'air
td = dewpoint
ff = Vitesse du vent
fx = gusts
dd = Direction du vent
rr = Quantités de précipitations

stations d'obs. à proximité